sensor_id;sensor_type;location;lat;lon;timestamp;temperature;humidity
25923;DHT22;13725;51.170;4.442;2023-06-22T00:01:03;21.10;99.90
25923;DHT22;13725;51.170;4.442;2023-06-22T00:03:29;21.10;99.90
25923;DHT22;13725;51.170;4.442;2023-06-22T00:05:54;21.10;99.90
25923;DHT22;13725;51.170;4.442;2023-06-22T00:08:20;21.00;99.90
25923;DHT22;13725;51.170;4.442;2023-06-22T00:10:46;21.00;99.90
25923;DHT22;13725;51.170;4.442;2023-06-22T00:13:13;20.90;99.90
25923;DHT22;13725;51.170;4.442;2023-06-22T00:15:41;20.90;99.90
25923;DHT22;13725;51.170;4.442;2023-06-22T00:18:08;20.90;99.90
25923;DHT22;13725;51.170;4.442;2023-06-22T00:20:33;20.80;99.90
25923;DHT22;13725;51.170;4.442;2023-06-22T00:23:03;20.80;99.90
25923;DHT22;13725;51.170;4.442;2023-06-22T00:25:38;20.80;99.90
25923;DHT22;13725;51.170;4.442;2023-06-22T00:28:07;20.70;99.90
25923;DHT22;13725;51.170;4.442;2023-06-22T00:30:35;20.60;99.90
25923;DHT22;13725;51.170;4.442;2023-06-22T00:33:03;20.60;99.90
25923;DHT22;13725;51.170;4.442;2023-06-22T00:35:28;20.60;99.90
25923;DHT22;13725;51.170;4.442;2023-06-22T00:37:56;20.60;99.90
25923;DHT22;13725;51.170;4.442;2023-06-22T00:40:27;20.50;99.90
25923;DHT22;13725;51.170;4.442;2023-06-22T00:42:53;20.60;99.90
25923;DHT22;13725;51.170;4.442;2023-06-22T00:45:18;20.60;99.90
25923;DHT22;13725;51.170;4.442;2023-06-22T00:47:44;20.50;99.90
25923;DHT22;13725;51.170;4.442;2023-06-22T00:50:17;20.50;99.90
25923;DHT22;13725;51.170;4.442;2023-06-22T00:52:44;20.40;99.90
25923;DHT22;13725;51.170;4.442;2023-06-22T00:55:10;20.40;99.90
25923;DHT22;13725;51.170;4.442;2023-06-22T00:57:36;20.40;99.90
25923;DHT22;13725;51.170;4.442;2023-06-22T01:00:03;20.30;99.90
25923;DHT22;13725;51.170;4.442;2023-06-22T01:02:33;20.30;99.90
25923;DHT22;13725;51.170;4.442;2023-06-22T01:04:59;20.30;99.90
25923;DHT22;13725;51.170;4.442;2023-06-22T01:07:45;20.30;99.90
25923;DHT22;13725;51.170;4.442;2023-06-22T01:10:32;20.30;99.90
25923;DHT22;13725;51.170;4.442;2023-06-22T01:13:04;20.30;99.90
25923;DHT22;13725;51.170;4.442;2023-06-22T01:15:47;20.20;99.90
25923;DHT22;13725;51.170;4.442;2023-06-22T01:18:17;20.20;99.90
25923;DHT22;13725;51.170;4.442;2023-06-22T01:20:45;20.20;99.90
25923;DHT22;13725;51.170;4.442;2023-06-22T01:23:25;20.20;99.90
25923;DHT22;13725;51.170;4.442;2023-06-22T01:26:08;20.20;99.90
25923;DHT22;13725;51.170;4.442;2023-06-22T01:28:50;20.20;99.90
25923;DHT22;13725;51.170;4.442;2023-06-22T01:31:23;20.20;99.90
25923;DHT22;13725;51.170;4.442;2023-06-22T01:34:02;20.10;99.90
25923;DHT22;13725;51.170;4.442;2023-06-22T01:36:30;20.20;99.90
25923;DHT22;13725;51.170;4.442;2023-06-22T01:38:57;20.10;99.90
25923;DHT22;13725;51.170;4.442;2023-06-22T01:41:25;20.10;99.90
25923;DHT22;13725;51.170;4.442;2023-06-22T01:43:53;20.10;99.90
25923;DHT22;13725;51.170;4.442;2023-06-22T01:46:20;20.10;99.90
25923;DHT22;13725;51.170;4.442;2023-06-22T01:48:47;20.10;99.90
25923;DHT22;13725;51.170;4.442;2023-06-22T01:51:14;20.20;99.90
25923;DHT22;13725;51.170;4.442;2023-06-22T01:53:40;20.20;99.90
25923;DHT22;13725;51.170;4.442;2023-06-22T01:56:06;20.30;99.90
25923;DHT22;13725;51.170;4.442;2023-06-22T01:58:33;20.30;99.90
25923;DHT22;13725;51.170;4.442;2023-06-22T02:01:14;20.30;99.90
25923;DHT22;13725;51.170;4.442;2023-06-22T02:03:44;20.30;99.90
25923;DHT22;13725;51.170;4.442;2023-06-22T02:06:34;20.30;99.90
25923;DHT22;13725;51.170;4.442;2023-06-22T02:09:07;20.30;99.90
25923;DHT22;13725;51.170;4.442;2023-06-22T02:11:35;20.30;99.90
25923;DHT22;13725;51.170;4.442;2023-06-22T02:14:02;20.20;99.90
25923;DHT22;13725;51.170;4.442;2023-06-22T02:16:31;20.20;99.90
25923;DHT22;13725;51.170;4.442;2023-06-22T02:19:01;20.10;99.90
25923;DHT22;13725;51.170;4.442;2023-06-22T02:21:29;20.10;99.90
25923;DHT22;13725;51.170;4.442;2023-06-22T02:23:55;20.00;99.90
25923;DHT22;13725;51.170;4.442;2023-06-22T02:26:21;19.90;99.90
25923;DHT22;13725;51.170;4.442;2023-06-22T02:28:47;20.00;99.90
25923;DHT22;13725;51.170;4.442;2023-06-22T02:31:16;19.90;99.90
25923;DHT22;13725;51.170;4.442;2023-06-22T02:33:42;19.90;99.90
25923;DHT22;13725;51.170;4.442;2023-06-22T02:36:09;19.80;99.90
25923;DHT22;13725;51.170;4.442;2023-06-22T02:38:40;19.80;99.90
25923;DHT22;13725;51.170;4.442;2023-06-22T02:41:16;19.70;99.90
25923;DHT22;13725;51.170;4.442;2023-06-22T02:43:45;19.70;99.90
25923;DHT22;13725;51.170;4.442;2023-06-22T02:46:12;19.70;99.90
25923;DHT22;13725;51.170;4.442;2023-06-22T02:48:40;19.60;99.90
25923;DHT22;13725;51.170;4.442;2023-06-22T02:51:06;19.60;99.90
25923;DHT22;13725;51.170;4.442;2023-06-22T02:53:33;19.60;99.90
25923;DHT22;13725;51.170;4.442;2023-06-22T02:56:00;19.60;99.90
25923;DHT22;13725;51.170;4.442;2023-06-22T02:58:29;19.60;99.90
25923;DHT22;13725;51.170;4.442;2023-06-22T03:00:55;19.60;99.90
25923;DHT22;13725;51.170;4.442;2023-06-22T03:03:21;19.50;99.90
25923;DHT22;13725;51.170;4.442;2023-06-22T03:05:46;19.60;99.90
25923;DHT22;13725;51.170;4.442;2023-06-22T03:08:12;19.50;99.90
25923;DHT22;13725;51.170;4.442;2023-06-22T03:10:38;19.50;99.90
25923;DHT22;13725;51.170;4.442;2023-06-22T03:13:04;19.40;99.90
25923;DHT22;13725;51.170;4.442;2023-06-22T03:15:30;19.40;99.90
25923;DHT22;13725;51.170;4.442;2023-06-22T03:17:57;19.30;99.90
25923;DHT22;13725;51.170;4.442;2023-06-22T03:20:23;19.30;99.90
25923;DHT22;13725;51.170;4.442;2023-06-22T03:22:48;19.30;99.90
25923;DHT22;13725;51.170;4.442;2023-06-22T03:25:14;19.30;99.90
25923;DHT22;13725;51.170;4.442;2023-06-22T03:27:43;19.30;99.90
25923;DHT22;13725;51.170;4.442;2023-06-22T03:30:11;19.30;99.90
25923;DHT22;13725;51.170;4.442;2023-06-22T03:32:37;19.30;99.90
25923;DHT22;13725;51.170;4.442;2023-06-22T03:35:05;19.30;99.90
25923;DHT22;13725;51.170;4.442;2023-06-22T03:37:32;19.30;99.90
25923;DHT22;13725;51.170;4.442;2023-06-22T03:39:59;19.30;99.90
25923;DHT22;13725;51.170;4.442;2023-06-22T03:42:25;19.30;99.90
25923;DHT22;13725;51.170;4.442;2023-06-22T03:44:51;19.30;99.90
25923;DHT22;13725;51.170;4.442;2023-06-22T03:47:17;19.20;99.90
25923;DHT22;13725;51.170;4.442;2023-06-22T03:49:43;19.20;99.90
25923;DHT22;13725;51.170;4.442;2023-06-22T03:52:09;19.30;99.90
25923;DHT22;13725;51.170;4.442;2023-06-22T03:54:36;19.30;99.90
25923;DHT22;13725;51.170;4.442;2023-06-22T03:57:03;19.20;99.90
25923;DHT22;13725;51.170;4.442;2023-06-22T03:59:29;19.30;99.90
25923;DHT22;13725;51.170;4.442;2023-06-22T04:01:54;19.20;99.90
25923;DHT22;13725;51.170;4.442;2023-06-22T04:04:21;19.30;99.90
25923;DHT22;13725;51.170;4.442;2023-06-22T04:06:47;19.30;99.90
25923;DHT22;13725;51.170;4.442;2023-06-22T04:09:12;19.30;99.90
25923;DHT22;13725;51.170;4.442;2023-06-22T04:11:38;19.30;99.90
25923;DHT22;13725;51.170;4.442;2023-06-22T04:14:04;19.20;99.90
25923;DHT22;13725;51.170;4.442;2023-06-22T04:16:30;19.20;99.90
25923;DHT22;13725;51.170;4.442;2023-06-22T04:18:55;19.20;99.90
25923;DHT22;13725;51.170;4.442;2023-06-22T04:21:21;19.20;99.90
25923;DHT22;13725;51.170;4.442;2023-06-22T04:23:47;19.30;99.90
25923;DHT22;13725;51.170;4.442;2023-06-22T04:26:13;19.30;99.90
25923;DHT22;13725;51.170;4.442;2023-06-22T04:28:40;19.40;99.90
25923;DHT22;13725;51.170;4.442;2023-06-22T04:31:06;19.40;99.90
25923;DHT22;13725;51.170;4.442;2023-06-22T04:33:32;19.50;99.90
25923;DHT22;13725;51.170;4.442;2023-06-22T04:35:58;19.50;99.90
25923;DHT22;13725;51.170;4.442;2023-06-22T04:38:24;19.50;99.90
25923;DHT22;13725;51.170;4.442;2023-06-22T04:40:50;19.60;99.90
25923;DHT22;13725;51.170;4.442;2023-06-22T04:43:16;19.60;99.90
25923;DHT22;13725;51.170;4.442;2023-06-22T04:45:42;19.70;99.90
25923;DHT22;13725;51.170;4.442;2023-06-22T04:48:08;19.70;99.90
25923;DHT22;13725;51.170;4.442;2023-06-22T04:50:36;19.70;99.90
25923;DHT22;13725;51.170;4.442;2023-06-22T04:53:04;19.70;99.90
25923;DHT22;13725;51.170;4.442;2023-06-22T04:55:32;19.80;99.90
25923;DHT22;13725;51.170;4.442;2023-06-22T04:57:57;19.80;99.90
25923;DHT22;13725;51.170;4.442;2023-06-22T05:00:30;19.80;99.90
25923;DHT22;13725;51.170;4.442;2023-06-22T05:02:56;19.90;99.90
25923;DHT22;13725;51.170;4.442;2023-06-22T05:05:25;20.10;99.90
25923;DHT22;13725;51.170;4.442;2023-06-22T05:07:51;20.20;99.90
25923;DHT22;13725;51.170;4.442;2023-06-22T05:10:19;20.40;99.90
25923;DHT22;13725;51.170;4.442;2023-06-22T05:12:46;20.60;99.90
25923;DHT22;13725;51.170;4.442;2023-06-22T05:15:12;20.90;99.90
25923;DHT22;13725;51.170;4.442;2023-06-22T05:17:38;21.20;99.90
25923;DHT22;13725;51.170;4.442;2023-06-22T05:20:11;21.60;99.90
25923;DHT22;13725;51.170;4.442;2023-06-22T05:22:38;21.80;99.90
25923;DHT22;13725;51.170;4.442;2023-06-22T05:25:07;22.00;99.90
25923;DHT22;13725;51.170;4.442;2023-06-22T05:27:33;22.10;99.90
25923;DHT22;13725;51.170;4.442;2023-06-22T05:29:59;22.20;99.90
25923;DHT22;13725;51.170;4.442;2023-06-22T05:32:24;22.20;99.90
25923;DHT22;13725;51.170;4.442;2023-06-22T05:34:50;22.30;99.90
25923;DHT22;13725;51.170;4.442;2023-06-22T05:37:16;22.30;99.90
25923;DHT22;13725;51.170;4.442;2023-06-22T05:39:41;22.30;99.90
25923;DHT22;13725;51.170;4.442;2023-06-22T05:42:08;22.40;99.90
25923;DHT22;13725;51.170;4.442;2023-06-22T05:44:33;22.40;99.90
25923;DHT22;13725;51.170;4.442;2023-06-22T05:46:59;22.40;99.90
25923;DHT22;13725;51.170;4.442;2023-06-22T05:49:25;22.50;99.90
25923;DHT22;13725;51.170;4.442;2023-06-22T05:51:55;22.60;99.90
25923;DHT22;13725;51.170;4.442;2023-06-22T05:54:22;22.70;99.90
25923;DHT22;13725;51.170;4.442;2023-06-22T05:56:48;22.80;99.90
25923;DHT22;13725;51.170;4.442;2023-06-22T05:59:15;22.70;99.90
25923;DHT22;13725;51.170;4.442;2023-06-22T06:01:41;22.60;99.90
25923;DHT22;13725;51.170;4.442;2023-06-22T06:04:06;22.60;99.90
25923;DHT22;13725;51.170;4.442;2023-06-22T06:06:36;22.70;99.90
25923;DHT22;13725;51.170;4.442;2023-06-22T06:09:04;22.80;99.90
25923;DHT22;13725;51.170;4.442;2023-06-22T06:11:30;22.90;99.90
25923;DHT22;13725;51.170;4.442;2023-06-22T06:13:55;22.80;99.90
25923;DHT22;13725;51.170;4.442;2023-06-22T06:16:22;22.80;99.90
25923;DHT22;13725;51.170;4.442;2023-06-22T06:18:48;22.80;99.90
25923;DHT22;13725;51.170;4.442;2023-06-22T06:21:16;22.90;99.90
25923;DHT22;13725;51.170;4.442;2023-06-22T06:23:42;22.90;99.90
25923;DHT22;13725;51.170;4.442;2023-06-22T06:26:08;22.70;99.90
25923;DHT22;13725;51.170;4.442;2023-06-22T06:28:34;22.70;99.90
25923;DHT22;13725;51.170;4.442;2023-06-22T06:31:00;22.60;99.90
25923;DHT22;13725;51.170;4.442;2023-06-22T06:33:26;22.50;99.90
25923;DHT22;13725;51.170;4.442;2023-06-22T06:35:51;22.40;99.90
25923;DHT22;13725;51.170;4.442;2023-06-22T06:38:17;22.50;99.90
25923;DHT22;13725;51.170;4.442;2023-06-22T06:40:43;22.40;99.90
25923;DHT22;13725;51.170;4.442;2023-06-22T06:43:10;22.50;99.90
25923;DHT22;13725;51.170;4.442;2023-06-22T06:45:36;22.60;99.90
25923;DHT22;13725;51.170;4.442;2023-06-22T06:48:02;22.60;99.90
25923;DHT22;13725;51.170;4.442;2023-06-22T06:50:28;22.60;99.90
25923;DHT22;13725;51.170;4.442;2023-06-22T06:52:54;22.80;99.90
25923;DHT22;13725;51.170;4.442;2023-06-22T06:55:20;22.60;99.90
25923;DHT22;13725;51.170;4.442;2023-06-22T06:57:46;22.70;99.90
25923;DHT22;13725;51.170;4.442;2023-06-22T07:00:14;22.70;99.90
25923;DHT22;13725;51.170;4.442;2023-06-22T07:02:42;22.80;99.90
25923;DHT22;13725;51.170;4.442;2023-06-22T07:05:09;22.90;99.90
25923;DHT22;13725;51.170;4.442;2023-06-22T07:07:35;22.90;99.90
25923;DHT22;13725;51.170;4.442;2023-06-22T07:10:02;23.00;99.90
25923;DHT22;13725;51.170;4.442;2023-06-22T07:12:28;23.00;99.90
25923;DHT22;13725;51.170;4.442;2023-06-22T07:15:04;23.00;99.90
25923;DHT22;13725;51.170;4.442;2023-06-22T07:17:30;23.00;99.90
25923;DHT22;13725;51.170;4.442;2023-06-22T07:19:56;23.10;99.90
25923;DHT22;13725;51.170;4.442;2023-06-22T07:22:22;23.20;99.90
25923;DHT22;13725;51.170;4.442;2023-06-22T07:24:47;23.10;99.90
25923;DHT22;13725;51.170;4.442;2023-06-22T07:27:14;23.10;99.90
25923;DHT22;13725;51.170;4.442;2023-06-22T07:29:43;23.10;99.90
25923;DHT22;13725;51.170;4.442;2023-06-22T07:32:10;22.90;99.90
25923;DHT22;13725;51.170;4.442;2023-06-22T07:34:36;22.80;99.90
25923;DHT22;13725;51.170;4.442;2023-06-22T07:37:02;22.70;99.90
25923;DHT22;13725;51.170;4.442;2023-06-22T07:39:30;22.70;99.90
25923;DHT22;13725;51.170;4.442;2023-06-22T07:41:55;22.80;99.90
25923;DHT22;13725;51.170;4.442;2023-06-22T07:44:21;22.90;99.90
25923;DHT22;13725;51.170;4.442;2023-06-22T07:46:47;23.00;99.90
25923;DHT22;13725;51.170;4.442;2023-06-22T07:49:13;23.10;99.90
25923;DHT22;13725;51.170;4.442;2023-06-22T07:51:38;23.30;99.90
25923;DHT22;13725;51.170;4.442;2023-06-22T07:54:04;23.40;99.90
25923;DHT22;13725;51.170;4.442;2023-06-22T07:56:30;23.40;99.90
25923;DHT22;13725;51.170;4.442;2023-06-22T07:58:55;23.50;99.90
25923;DHT22;13725;51.170;4.442;2023-06-22T08:01:23;23.50;99.90
25923;DHT22;13725;51.170;4.442;2023-06-22T08:03:50;23.50;99.90
25923;DHT22;13725;51.170;4.442;2023-06-22T08:06:16;23.50;99.90
25923;DHT22;13725;51.170;4.442;2023-06-22T08:08:42;23.60;99.90
25923;DHT22;13725;51.170;4.442;2023-06-22T08:11:08;23.70;99.90
25923;DHT22;13725;51.170;4.442;2023-06-22T08:13:34;23.70;99.90
25923;DHT22;13725;51.170;4.442;2023-06-22T08:16:00;23.60;99.90
25923;DHT22;13725;51.170;4.442;2023-06-22T08:18:26;23.40;99.90
25923;DHT22;13725;51.170;4.442;2023-06-22T08:20:52;23.30;99.90
25923;DHT22;13725;51.170;4.442;2023-06-22T08:23:18;23.40;99.90
25923;DHT22;13725;51.170;4.442;2023-06-22T08:25:44;23.30;99.90
25923;DHT22;13725;51.170;4.442;2023-06-22T08:28:09;23.50;99.90
25923;DHT22;13725;51.170;4.442;2023-06-22T08:30:35;23.60;99.90
25923;DHT22;13725;51.170;4.442;2023-06-22T08:33:01;23.70;99.90
25923;DHT22;13725;51.170;4.442;2023-06-22T08:35:27;23.70;99.90
25923;DHT22;13725;51.170;4.442;2023-06-22T08:37:53;23.80;99.90
25923;DHT22;13725;51.170;4.442;2023-06-22T08:40:20;23.90;99.90
25923;DHT22;13725;51.170;4.442;2023-06-22T08:42:47;23.90;99.90
25923;DHT22;13725;51.170;4.442;2023-06-22T08:45:13;23.90;99.90
25923;DHT22;13725;51.170;4.442;2023-06-22T08:47:40;23.90;99.90
25923;DHT22;13725;51.170;4.442;2023-06-22T08:50:10;23.80;99.90
25923;DHT22;13725;51.170;4.442;2023-06-22T08:52:37;23.80;99.90
25923;DHT22;13725;51.170;4.442;2023-06-22T08:55:03;23.90;99.90
25923;DHT22;13725;51.170;4.442;2023-06-22T08:57:29;23.90;99.90
25923;DHT22;13725;51.170;4.442;2023-06-22T08:59:56;23.80;99.90
25923;DHT22;13725;51.170;4.442;2023-06-22T09:02:27;23.80;99.90
25923;DHT22;13725;51.170;4.442;2023-06-22T09:04:57;23.70;99.90
25923;DHT22;13725;51.170;4.442;2023-06-22T09:07:23;23.70;99.90
25923;DHT22;13725;51.170;4.442;2023-06-22T09:09:50;23.60;99.90
25923;DHT22;13725;51.170;4.442;2023-06-22T09:12:17;23.60;99.90
25923;DHT22;13725;51.170;4.442;2023-06-22T09:14:46;23.50;99.90
25923;DHT22;13725;51.170;4.442;2023-06-22T09:17:13;23.60;99.90
25923;DHT22;13725;51.170;4.442;2023-06-22T09:19:39;23.50;99.90
25923;DHT22;13725;51.170;4.442;2023-06-22T09:22:05;23.50;99.90
25923;DHT22;13725;51.170;4.442;2023-06-22T09:24:32;23.40;99.90
25923;DHT22;13725;51.170;4.442;2023-06-22T09:26:59;23.30;99.90
25923;DHT22;13725;51.170;4.442;2023-06-22T09:29:25;23.30;99.90
25923;DHT22;13725;51.170;4.442;2023-06-22T09:31:50;23.20;99.90
25923;DHT22;13725;51.170;4.442;2023-06-22T09:34:19;23.10;99.90
25923;DHT22;13725;51.170;4.442;2023-06-22T09:36:48;23.20;99.90
25923;DHT22;13725;51.170;4.442;2023-06-22T09:39:14;23.30;99.90
25923;DHT22;13725;51.170;4.442;2023-06-22T09:41:40;23.30;99.90
25923;DHT22;13725;51.170;4.442;2023-06-22T09:44:06;23.40;99.90
25923;DHT22;13725;51.170;4.442;2023-06-22T09:46:31;23.40;99.90
25923;DHT22;13725;51.170;4.442;2023-06-22T09:48:58;23.40;99.90
25923;DHT22;13725;51.170;4.442;2023-06-22T09:51:24;23.50;99.90
25923;DHT22;13725;51.170;4.442;2023-06-22T09:53:50;23.50;99.90
25923;DHT22;13725;51.170;4.442;2023-06-22T09:56:16;23.50;99.90
25923;DHT22;13725;51.170;4.442;2023-06-22T09:58:42;23.50;99.90
25923;DHT22;13725;51.170;4.442;2023-06-22T10:01:08;23.30;99.90
25923;DHT22;13725;51.170;4.442;2023-06-22T10:03:36;23.00;99.90
25923;DHT22;13725;51.170;4.442;2023-06-22T10:06:02;22.90;99.90
25923;DHT22;13725;51.170;4.442;2023-06-22T10:08:28;22.80;99.90
25923;DHT22;13725;51.170;4.442;2023-06-22T10:10:53;22.60;99.90
25923;DHT22;13725;51.170;4.442;2023-06-22T10:13:19;22.50;99.90
25923;DHT22;13725;51.170;4.442;2023-06-22T10:15:45;22.50;99.90
25923;DHT22;13725;51.170;4.442;2023-06-22T10:18:18;22.50;99.90
25923;DHT22;13725;51.170;4.442;2023-06-22T10:20:48;22.50;99.90
25923;DHT22;13725;51.170;4.442;2023-06-22T10:23:14;22.30;99.90
25923;DHT22;13725;51.170;4.442;2023-06-22T10:25:40;22.20;99.90
25923;DHT22;13725;51.170;4.442;2023-06-22T10:28:06;22.10;99.90
25923;DHT22;13725;51.170;4.442;2023-06-22T10:30:31;22.10;99.90
25923;DHT22;13725;51.170;4.442;2023-06-22T10:32:57;22.00;99.90
25923;DHT22;13725;51.170;4.442;2023-06-22T10:35:25;21.90;99.90
25923;DHT22;13725;51.170;4.442;2023-06-22T10:37:51;21.90;99.90
25923;DHT22;13725;51.170;4.442;2023-06-22T10:40:17;21.80;99.90
25923;DHT22;13725;51.170;4.442;2023-06-22T10:42:44;21.70;99.90
25923;DHT22;13725;51.170;4.442;2023-06-22T10:45:10;21.60;99.90
25923;DHT22;13725;51.170;4.442;2023-06-22T10:47:36;21.40;99.90
25923;DHT22;13725;51.170;4.442;2023-06-22T10:50:03;21.30;99.90
25923;DHT22;13725;51.170;4.442;2023-06-22T10:52:29;21.00;99.90
25923;DHT22;13725;51.170;4.442;2023-06-22T10:54:55;20.90;99.90
25923;DHT22;13725;51.170;4.442;2023-06-22T10:57:22;20.80;99.90
25923;DHT22;13725;51.170;4.442;2023-06-22T10:59:48;20.80;99.90
25923;DHT22;13725;51.170;4.442;2023-06-22T11:02:14;20.90;99.90
25923;DHT22;13725;51.170;4.442;2023-06-22T11:04:39;20.90;99.90
25923;DHT22;13725;51.170;4.442;2023-06-22T11:07:05;21.00;99.90
25923;DHT22;13725;51.170;4.442;2023-06-22T11:09:31;21.00;99.90
25923;DHT22;13725;51.170;4.442;2023-06-22T11:11:57;21.10;99.90
25923;DHT22;13725;51.170;4.442;2023-06-22T11:14:24;21.10;99.90
25923;DHT22;13725;51.170;4.442;2023-06-22T11:16:50;21.10;99.90
25923;DHT22;13725;51.170;4.442;2023-06-22T11:19:16;21.10;99.90
25923;DHT22;13725;51.170;4.442;2023-06-22T11:21:42;21.00;99.90
25923;DHT22;13725;51.170;4.442;2023-06-22T11:24:08;20.90;99.90
25923;DHT22;13725;51.170;4.442;2023-06-22T11:26:34;20.90;99.90
25923;DHT22;13725;51.170;4.442;2023-06-22T11:29:00;20.90;99.90
25923;DHT22;13725;51.170;4.442;2023-06-22T11:31:26;20.90;99.90
25923;DHT22;13725;51.170;4.442;2023-06-22T11:33:52;21.00;99.90
25923;DHT22;13725;51.170;4.442;2023-06-22T11:36:18;21.00;99.90
25923;DHT22;13725;51.170;4.442;2023-06-22T11:38:44;21.00;99.90
25923;DHT22;13725;51.170;4.442;2023-06-22T11:41:10;20.80;99.90
25923;DHT22;13725;51.170;4.442;2023-06-22T11:43:36;20.90;99.90
25923;DHT22;13725;51.170;4.442;2023-06-22T11:46:04;20.70;99.90
25923;DHT22;13725;51.170;4.442;2023-06-22T11:48:30;20.80;99.90
25923;DHT22;13725;51.170;4.442;2023-06-22T11:50:56;20.80;99.90
25923;DHT22;13725;51.170;4.442;2023-06-22T11:53:24;20.70;99.90
25923;DHT22;13725;51.170;4.442;2023-06-22T11:55:51;20.70;99.90
25923;DHT22;13725;51.170;4.442;2023-06-22T11:58:19;20.60;99.90
25923;DHT22;13725;51.170;4.442;2023-06-22T12:00:45;20.60;99.90
25923;DHT22;13725;51.170;4.442;2023-06-22T12:03:11;20.50;99.90
25923;DHT22;13725;51.170;4.442;2023-06-22T12:05:38;20.40;99.90
25923;DHT22;13725;51.170;4.442;2023-06-22T12:08:04;20.40;99.90
25923;DHT22;13725;51.170;4.442;2023-06-22T12:10:30;20.30;99.90
25923;DHT22;13725;51.170;4.442;2023-06-22T12:12:56;20.30;99.90
25923;DHT22;13725;51.170;4.442;2023-06-22T12:15:23;20.20;99.90
25923;DHT22;13725;51.170;4.442;2023-06-22T12:17:49;20.10;99.90
25923;DHT22;13725;51.170;4.442;2023-06-22T12:20:15;20.10;99.90
25923;DHT22;13725;51.170;4.442;2023-06-22T12:22:41;20.10;99.90
25923;DHT22;13725;51.170;4.442;2023-06-22T12:25:07;20.00;99.90
25923;DHT22;13725;51.170;4.442;2023-06-22T12:27:34;20.00;99.90
25923;DHT22;13725;51.170;4.442;2023-06-22T12:30:00;20.00;99.90
25923;DHT22;13725;51.170;4.442;2023-06-22T12:32:25;20.00;99.90
25923;DHT22;13725;51.170;4.442;2023-06-22T12:34:51;19.90;99.90
25923;DHT22;13725;51.170;4.442;2023-06-22T12:37:17;20.00;99.90
25923;DHT22;13725;51.170;4.442;2023-06-22T12:39:43;19.80;99.90
25923;DHT22;13725;51.170;4.442;2023-06-22T12:42:09;19.80;99.90
25923;DHT22;13725;51.170;4.442;2023-06-22T12:44:38;19.70;99.90
25923;DHT22;13725;51.170;4.442;2023-06-22T12:47:04;19.80;99.90
25923;DHT22;13725;51.170;4.442;2023-06-22T12:49:30;19.70;99.90
25923;DHT22;13725;51.170;4.442;2023-06-22T12:51:56;19.60;99.90
25923;DHT22;13725;51.170;4.442;2023-06-22T12:54:21;19.70;99.90
25923;DHT22;13725;51.170;4.442;2023-06-22T12:56:47;19.70;99.90
25923;DHT22;13725;51.170;4.442;2023-06-22T12:59:13;19.70;99.90
25923;DHT22;13725;51.170;4.442;2023-06-22T13:01:39;19.70;99.90
25923;DHT22;13725;51.170;4.442;2023-06-22T13:04:05;19.70;99.90
25923;DHT22;13725;51.170;4.442;2023-06-22T13:06:31;19.70;99.90
25923;DHT22;13725;51.170;4.442;2023-06-22T13:08:57;19.70;99.90
25923;DHT22;13725;51.170;4.442;2023-06-22T13:11:23;19.60;99.90
25923;DHT22;13725;51.170;4.442;2023-06-22T13:13:48;19.50;99.90
25923;DHT22;13725;51.170;4.442;2023-06-22T13:16:14;19.50;99.90
25923;DHT22;13725;51.170;4.442;2023-06-22T13:18:40;19.40;99.90
25923;DHT22;13725;51.170;4.442;2023-06-22T13:21:05;19.40;99.90
25923;DHT22;13725;51.170;4.442;2023-06-22T13:23:31;19.40;99.90
25923;DHT22;13725;51.170;4.442;2023-06-22T13:25:58;19.40;99.90
25923;DHT22;13725;51.170;4.442;2023-06-22T13:28:23;19.30;99.90
25923;DHT22;13725;51.170;4.442;2023-06-22T13:30:49;19.30;99.90
25923;DHT22;13725;51.170;4.442;2023-06-22T13:33:15;19.30;99.90
25923;DHT22;13725;51.170;4.442;2023-06-22T13:35:41;19.30;99.90
25923;DHT22;13725;51.170;4.442;2023-06-22T13:38:10;19.30;99.90
25923;DHT22;13725;51.170;4.442;2023-06-22T13:40:37;19.30;99.90
25923;DHT22;13725;51.170;4.442;2023-06-22T13:43:05;19.20;99.90
25923;DHT22;13725;51.170;4.442;2023-06-22T13:45:32;19.20;99.90
25923;DHT22;13725;51.170;4.442;2023-06-22T13:47:58;19.30;99.90
25923;DHT22;13725;51.170;4.442;2023-06-22T13:50:23;19.30;99.90
25923;DHT22;13725;51.170;4.442;2023-06-22T13:52:49;19.30;99.90
25923;DHT22;13725;51.170;4.442;2023-06-22T13:55:15;19.40;99.90
25923;DHT22;13725;51.170;4.442;2023-06-22T13:57:42;19.40;99.90
25923;DHT22;13725;51.170;4.442;2023-06-22T14:00:08;19.50;99.90
25923;DHT22;13725;51.170;4.442;2023-06-22T14:02:40;19.50;99.90
25923;DHT22;13725;51.170;4.442;2023-06-22T14:05:07;19.40;99.90
25923;DHT22;13725;51.170;4.442;2023-06-22T14:07:33;19.40;99.90
25923;DHT22;13725;51.170;4.442;2023-06-22T14:10:00;19.40;99.90
25923;DHT22;13725;51.170;4.442;2023-06-22T14:12:26;19.40;99.90
25923;DHT22;13725;51.170;4.442;2023-06-22T14:14:51;19.40;99.90
25923;DHT22;13725;51.170;4.442;2023-06-22T14:17:18;19.30;99.90
25923;DHT22;13725;51.170;4.442;2023-06-22T14:19:49;19.30;99.90
25923;DHT22;13725;51.170;4.442;2023-06-22T14:22:15;19.40;99.90
25923;DHT22;13725;51.170;4.442;2023-06-22T14:24:41;19.30;99.90
25923;DHT22;13725;51.170;4.442;2023-06-22T14:27:07;19.30;99.90
25923;DHT22;13725;51.170;4.442;2023-06-22T14:29:35;19.40;99.90
25923;DHT22;13725;51.170;4.442;2023-06-22T14:32:01;19.40;99.90
25923;DHT22;13725;51.170;4.442;2023-06-22T14:34:26;19.40;99.90
25923;DHT22;13725;51.170;4.442;2023-06-22T14:36:52;19.30;99.90
25923;DHT22;13725;51.170;4.442;2023-06-22T14:39:18;19.40;99.90
25923;DHT22;13725;51.170;4.442;2023-06-22T14:41:43;19.50;99.90
25923;DHT22;13725;51.170;4.442;2023-06-22T14:44:09;19.60;99.90
25923;DHT22;13725;51.170;4.442;2023-06-22T14:46:35;19.60;99.90
25923;DHT22;13725;51.170;4.442;2023-06-22T14:49:01;19.60;99.90
25923;DHT22;13725;51.170;4.442;2023-06-22T14:51:26;19.80;99.90
25923;DHT22;13725;51.170;4.442;2023-06-22T14:53:52;19.70;99.90
25923;DHT22;13725;51.170;4.442;2023-06-22T14:56:18;19.80;99.90
25923;DHT22;13725;51.170;4.442;2023-06-22T14:58:44;19.80;99.90
25923;DHT22;13725;51.170;4.442;2023-06-22T15:01:13;19.70;99.90
25923;DHT22;13725;51.170;4.442;2023-06-22T15:03:39;19.80;99.90
25923;DHT22;13725;51.170;4.442;2023-06-22T15:06:05;19.80;99.90
25923;DHT22;13725;51.170;4.442;2023-06-22T15:08:32;19.70;99.90
25923;DHT22;13725;51.170;4.442;2023-06-22T15:11:00;19.70;99.90
25923;DHT22;13725;51.170;4.442;2023-06-22T15:13:27;19.80;99.90
25923;DHT22;13725;51.170;4.442;2023-06-22T15:15:53;19.90;99.90
25923;DHT22;13725;51.170;4.442;2023-06-22T15:18:19;20.00;99.90
25923;DHT22;13725;51.170;4.442;2023-06-22T15:20:45;19.90;99.90
25923;DHT22;13725;51.170;4.442;2023-06-22T15:23:12;19.90;99.90
25923;DHT22;13725;51.170;4.442;2023-06-22T15:25:38;19.90;99.90
25923;DHT22;13725;51.170;4.442;2023-06-22T15:28:03;19.90;99.90